メインページ
METAR-TAF:

METAR-TAF

空港 :

Al-`Ula, サウジアラビア

緯度: 26-29-00N, 経度: 038-07-01E, 海抜: 624m

現時点の気象観測

当レポートは36分前の23:00(UTC)に作成
東/南東の風 2kt
気温 18°C
湿度 59%
気圧 1019 hPa
視程10km以上
高度4500ftの雲は散在している

METAR: OEAO 152300Z 12002KT 9999 SCT045 18/10 Q1019

時間: 02:36 (23:36 UTC)

予報

当レポートは36分前の23:00(UTC)に作成
予報は16日の 00時(UTC)から 17日の 06時(UTC)まで有効
南/南東の風 10kt、最大20ktの突風を伴う
視程: 7000m
高度4000ftの雲はほとんどない
16日の 07時(UTC)から 16日の 15時(UTC)まで一時的に
視程: 3500m
広範な塵, 風塵
16日の 18時(UTC)から 16日の 20時(UTC)まで徐々に
南西の風 6kt

TAF: OEAO 152300Z 1600/1706 16010G20KT 7000 FEW040 TEMPO 1607/1615 3500 DU BLDU BECMG 1618/1620 22006KT

4,000以上の空港の気象観測と天気予報(METAR報とTAF報)

利用可能な観測所は地図上に黄色い丸と赤い丸で示す。

丸の上にカーソルを重ねると観測所名を参照できる。

次にクリックすると気象観測と天気予報を参照できる。

マップの切り替え:黒色「×」印の緑ボタンをクリックして拡大、「-」印の緑ボタンをクリックして縮小、緑色の三角印をクリックして隣りの地図に切り替え


METAR-TAF: